createdAt,value
2023-05-19T00:00:31.967Z,10.9962
2023-05-19T00:01:32.869Z,11.0013
2023-05-19T00:02:33.940Z,10.9760
2023-05-19T00:03:34.838Z,10.9863
2023-05-19T00:04:35.907Z,10.9855
2023-05-19T00:05:37.066Z,10.9863
2023-05-19T00:06:38.016Z,10.9518
2023-05-19T00:07:39.014Z,10.9637
2023-05-19T00:08:40.054Z,10.9294
2023-05-19T00:09:41.121Z,10.9187
2023-05-19T00:10:42.186Z,10.9315
2023-05-19T00:11:43.225Z,10.9512
2023-05-19T00:12:44.297Z,10.9430
2023-05-19T00:13:45.287Z,10.9678
2023-05-19T00:14:46.349Z,10.9302
2023-05-19T00:15:47.423Z,10.9187
2023-05-19T00:16:48.409Z,10.9079
2023-05-19T00:17:49.413Z,10.8635
2023-05-19T00:18:50.566Z,10.8851
2023-05-19T00:19:51.490Z,10.9021
2023-05-19T00:20:52.583Z,10.8986
2023-05-19T00:21:53.667Z,10.8974
2023-05-19T00:22:54.631Z,10.8768
2023-05-19T00:23:55.668Z,10.8713
2023-05-19T00:24:56.796Z,10.8729
2023-05-19T00:25:57.812Z,10.8727
2023-05-19T00:26:58.833Z,10.8468
2023-05-19T00:27:59.809Z,10.8604
2023-05-19T00:29:00.863Z,10.8569
2023-05-19T00:30:01.892Z,10.8099
2023-05-19T00:31:03.010Z,10.8423
2023-05-19T00:32:04.026Z,10.8314
2023-05-19T00:33:05.137Z,10.8316
2023-05-19T00:34:06.074Z,10.8520
2023-05-19T00:35:07.097Z,10.8401
2023-05-19T00:36:08.210Z,10.8358
2023-05-19T00:37:09.252Z,10.8173
2023-05-19T00:38:10.233Z,10.7908
2023-05-19T00:39:11.329Z,10.7986
2023-05-19T00:40:12.315Z,10.7953
2023-05-19T00:41:13.429Z,10.7803
2023-05-19T00:42:14.507Z,10.7951
2023-05-19T00:43:15.429Z,10.7823
2023-05-19T00:44:16.490Z,10.7906
2023-05-19T00:45:17.568Z,10.7620
2023-05-19T00:46:18.649Z,10.7493
2023-05-19T00:47:19.679Z,10.7585
2023-05-19T00:48:20.650Z,10.7411
2023-05-19T00:49:21.710Z,10.7057
2023-05-19T00:50:22.746Z,10.7176
2023-05-19T00:51:23.890Z,10.7294
2023-05-19T00:52:24.906Z,10.7415
2023-05-19T00:53:25.852Z,10.7218
2023-05-19T00:54:26.912Z,10.7372
2023-05-19T00:55:27.999Z,10.7275
2023-05-19T00:56:29.099Z,10.7283
2023-05-19T00:57:30.106Z,10.7082
2023-05-19T00:58:31.219Z,10.6745
2023-05-19T00:59:32.153Z,10.6521
2023-05-19T01:00:33.421Z,10.6607
2023-05-19T01:01:34.385Z,10.6256
2023-05-19T01:02:35.392Z,10.6445
2023-05-19T01:03:36.473Z,10.6034
2023-05-19T01:04:37.308Z,10.5973
2023-05-19T01:05:38.412Z,10.6088
2023-05-19T01:06:39.452Z,10.6024
2023-05-19T01:07:40.509Z,10.6055
2023-05-19T01:08:41.522Z,10.5745
2023-05-19T01:09:42.552Z,10.5671
2023-05-19T01:10:43.579Z,10.5642
2023-05-19T01:11:44.687Z,10.5334
2023-05-19T01:12:45.697Z,10.4785
2023-05-19T01:13:46.725Z,10.4658
2023-05-19T01:14:47.757Z,10.4321
2023-05-19T01:15:48.838Z,10.4520
2023-05-19T01:16:49.938Z,10.4518
2023-05-19T01:17:50.935Z,10.4358
2023-05-19T01:18:51.937Z,10.4338
2023-05-19T01:19:53.011Z,10.4498
2023-05-19T01:20:54.027Z,10.4434
2023-05-19T01:21:55.106Z,10.4767
2023-05-19T01:22:56.113Z,10.4833
2023-05-19T01:23:57.200Z,10.4711
2023-05-19T01:24:58.150Z,10.4740
2023-05-19T01:25:59.185Z,10.5015
2023-05-19T01:27:00.331Z,10.4724
2023-05-19T01:28:01.370Z,10.4457
2023-05-19T01:29:02.379Z,10.4601
2023-05-19T01:30:03.407Z,10.4845
2023-05-19T01:31:04.446Z,10.4132
2023-05-19T01:32:05.599Z,10.3785
2023-05-19T01:33:06.610Z,10.3547
2023-05-19T01:34:07.663Z,10.3559
2023-05-19T01:35:08.594Z,10.3892
2023-05-19T01:36:09.741Z,10.3970
2023-05-19T01:37:10.786Z,10.3707
2023-05-19T01:38:11.791Z,10.3777
2023-05-19T01:39:12.792Z,10.4013
2023-05-19T01:40:13.813Z,10.4290
2023-05-19T01:41:14.948Z,10.4216
2023-05-19T01:42:15.935Z,10.3894
2023-05-19T01:43:16.985Z,10.4097
2023-05-19T01:44:18.082Z,10.4225
2023-05-19T01:45:19.100Z,10.3841
2023-05-19T01:46:20.098Z,10.3689
2023-05-19T01:47:21.239Z,10.3732
2023-05-19T01:48:22.200Z,10.3958
2023-05-19T01:49:23.219Z,10.3699
2023-05-19T01:50:24.264Z,10.3652
2023-05-19T01:51:25.296Z,10.3417
2023-05-19T01:52:26.377Z,10.3666
2023-05-19T01:53:27.416Z,10.3621
2023-05-19T01:54:28.416Z,10.3146
2023-05-19T01:55:29.473Z,10.3169
2023-05-19T01:56:30.494Z,10.3417
2023-05-19T01:57:31.593Z,10.3272
2023-05-19T01:58:32.694Z,10.3128
2023-05-19T01:59:33.638Z,10.3050
2023-05-19T02:00:34.815Z,10.3015
2023-05-19T02:01:35.753Z,10.2910
2023-05-19T02:02:36.839Z,10.2629
2023-05-19T02:03:37.857Z,10.2631
2023-05-19T02:04:38.877Z,10.2777
2023-05-19T02:05:39.940Z,10.2906
2023-05-19T02:06:40.960Z,10.2579
2023-05-19T02:07:42.017Z,10.2534
2023-05-19T02:08:43.126Z,10.2902
2023-05-19T02:09:44.037Z,10.2729
2023-05-19T02:10:45.137Z,10.2904
2023-05-19T02:11:46.113Z,10.2530
2023-05-19T02:12:47.191Z,10.2401
2023-05-19T02:13:48.268Z,10.2565
2023-05-19T02:14:49.270Z,10.2659
2023-05-19T02:15:50.374Z,10.2690
2023-05-19T02:16:51.350Z,10.2555
2023-05-19T02:17:52.461Z,10.2861
2023-05-19T02:18:53.541Z,10.2822
2023-05-19T02:19:54.469Z,10.2649
2023-05-19T02:20:55.494Z,10.2559
2023-05-19T02:21:56.550Z,10.2329
2023-05-19T02:22:57.656Z,10.1971
2023-05-19T02:23:58.723Z,10.2222
2023-05-19T02:24:59.673Z,10.2162
2023-05-19T02:26:00.717Z,10.2068
2023-05-19T02:27:01.736Z,10.2491
2023-05-19T02:28:02.838Z,10.2372
2023-05-19T02:29:03.858Z,10.1659
2023-05-19T02:30:04.845Z,10.1854
2023-05-19T02:31:05.945Z,10.1400
2023-05-19T02:32:07.027Z,10.1639
2023-05-19T02:33:08.082Z,10.1464
2023-05-19T02:34:09.053Z,10.1616
2023-05-19T02:35:10.025Z,10.2023
2023-05-19T02:36:11.085Z,10.1844
2023-05-19T02:37:12.118Z,10.1865
2023-05-19T02:38:13.225Z,10.1704
2023-05-19T02:39:14.296Z,10.1367
2023-05-19T02:40:15.338Z,10.1279
2023-05-19T02:41:16.311Z,10.1464
2023-05-19T02:42:17.334Z,10.1343
2023-05-19T02:43:18.426Z,10.1464
2023-05-19T02:44:19.446Z,10.1411
2023-05-19T02:45:20.470Z,10.1429
2023-05-19T02:46:21.559Z,10.1004
2023-05-19T02:47:22.605Z,10.0916
2023-05-19T02:48:23.605Z,10.0870
2023-05-19T02:49:24.656Z,10.0718
2023-05-19T02:50:25.652Z,10.1002
2023-05-19T02:51:26.709Z,10.0792
2023-05-19T02:52:27.727Z,10.0626
2023-05-19T02:53:28.806Z,10.0745
2023-05-19T02:54:29.855Z,10.0548
2023-05-19T02:55:30.865Z,10.0573
2023-05-19T02:56:31.907Z,10.0837
2023-05-19T02:57:32.964Z,10.0864
2023-05-19T02:58:34.040Z,10.0470
2023-05-19T02:59:35.115Z,10.0566
2023-05-19T03:00:36.060Z,10.0408
2023-05-19T03:01:37.185Z,10.0595
2023-05-19T03:02:38.313Z,10.0644
2023-05-19T03:03:39.329Z,10.0540
2023-05-19T03:04:40.253Z,10.0051
2023-05-19T03:05:41.327Z,10.0295
2023-05-19T03:06:42.307Z,10.0268
2023-05-19T03:07:43.425Z,10.0254
2023-05-19T03:08:44.429Z,10.0342
2023-05-19T03:09:45.522Z,10.0133
2023-05-19T03:10:46.465Z,10.0069
2023-05-19T03:11:47.489Z,10.0012
2023-05-19T03:12:48.610Z,10.0277
2023-05-19T03:13:49.617Z,10.0386
2023-05-19T03:14:50.665Z,10.0004
2023-05-19T03:15:51.698Z,10.0244
2023-05-19T03:16:52.918Z,9.9882
2023-05-19T03:17:53.784Z,9.9788
2023-05-19T03:18:54.903Z,9.9098
2023-05-19T03:19:55.899Z,9.9204
2023-05-19T03:20:56.922Z,9.9474
2023-05-19T03:21:57.893Z,9.9591
2023-05-19T03:22:59.018Z,9.9202
2023-05-19T03:24:00.100Z,9.8787
2023-05-19T03:25:01.087Z,9.8993
2023-05-19T03:26:02.054Z,9.8857
2023-05-19T03:27:03.194Z,9.9098
2023-05-19T03:28:04.152Z,9.8726
2023-05-19T03:29:05.240Z,9.8631
2023-05-19T03:30:06.726Z,9.8525
2023-05-19T03:31:07.337Z,9.8611
2023-05-19T03:32:08.296Z,9.8925
2023-05-19T03:33:09.522Z,9.8968
2023-05-19T03:34:10.395Z,9.8371
2023-05-19T03:35:11.512Z,9.8272
2023-05-19T03:36:12.496Z,9.7623
2023-05-19T03:37:13.519Z,9.7372
2023-05-19T03:38:14.536Z,9.7148
2023-05-19T03:39:15.692Z,9.7518
2023-05-19T03:40:16.691Z,9.7590
2023-05-19T03:41:17.733Z,9.6816
2023-05-19T03:42:18.697Z,9.6951
2023-05-19T03:43:19.755Z,9.6690
2023-05-19T03:44:20.869Z,9.6904
2023-05-19T03:45:21.923Z,9.6996
2023-05-19T03:46:22.983Z,9.6947
2023-05-19T03:47:23.959Z,9.6799
2023-05-19T03:48:24.959Z,9.7321
2023-05-19T03:49:26.026Z,9.7062
2023-05-19T03:50:27.157Z,9.7009
2023-05-19T03:51:28.069Z,9.6651
2023-05-19T03:52:29.137Z,9.6382
2023-05-19T03:53:30.148Z,9.6360
2023-05-19T03:54:31.274Z,9.6337
2023-05-19T03:55:32.257Z,9.6448
2023-05-19T03:56:33.311Z,9.6781
2023-05-19T03:57:34.309Z,9.6696
2023-05-19T03:58:35.392Z,9.5860
2023-05-19T03:59:36.421Z,9.5595
2023-05-19T04:00:37.558Z,9.6688
2023-05-19T04:01:38.500Z,9.6692
2023-05-19T04:02:39.654Z,9.6524
2023-05-19T04:03:40.618Z,9.5852
2023-05-19T04:04:41.682Z,9.6483
2023-05-19T04:05:42.709Z,9.6263
2023-05-19T04:06:43.695Z,9.6536
2023-05-19T04:07:44.715Z,9.6721
2023-05-19T04:08:45.800Z,9.6750
2023-05-19T04:09:46.860Z,9.6427
2023-05-19T04:10:47.907Z,9.5797
2023-05-19T04:11:48.931Z,9.5747
2023-05-19T04:12:49.954Z,9.5632
2023-05-19T04:13:51.030Z,9.6154
2023-05-19T04:14:52.095Z,9.6076
2023-05-19T04:15:53.230Z,9.6261
2023-05-19T04:16:54.151Z,9.6423
2023-05-19T04:17:55.225Z,9.6600
2023-05-19T04:18:56.304Z,9.6721
2023-05-19T04:19:57.324Z,9.6590
2023-05-19T04:20:58.334Z,9.6117
2023-05-19T04:21:59.349Z,9.5427
2023-05-19T04:23:00.403Z,9.5524
2023-05-19T04:24:01.455Z,9.5752
2023-05-19T04:25:02.569Z,9.5339
2023-05-19T04:26:03.596Z,9.5207
2023-05-19T04:27:04.657Z,9.4887
2023-05-19T04:28:05.618Z,9.5472
2023-05-19T04:29:06.735Z,9.5100
2023-05-19T04:30:07.818Z,9.5357
2023-05-19T04:31:08.860Z,9.4957
2023-05-19T04:32:09.871Z,9.5480
2023-05-19T04:33:10.870Z,9.4751
2023-05-19T04:34:11.928Z,9.5252
2023-05-19T04:35:13.086Z,9.5665
2023-05-19T04:36:14.058Z,9.5394
2023-05-19T04:37:15.076Z,9.4942
2023-05-19T04:38:16.054Z,9.5109
2023-05-19T04:39:17.126Z,9.5554
2023-05-19T04:40:18.233Z,9.5031
2023-05-19T04:41:19.283Z,9.5353
2023-05-19T04:42:20.295Z,9.4973
2023-05-19T04:43:21.297Z,9.5197
2023-05-19T04:44:22.336Z,9.5308
2023-05-19T04:45:23.421Z,9.5657
2023-05-19T04:46:24.585Z,9.5291
2023-05-19T04:47:25.516Z,9.5789
2023-05-19T04:48:26.591Z,9.6066
2023-05-19T04:49:27.594Z,9.6516
2023-05-19T04:50:28.700Z,9.6473
2023-05-19T04:51:30.665Z,9.6080
2023-05-19T04:52:30.676Z,9.6493
2023-05-19T04:53:31.737Z,9.6682
2023-05-19T04:54:32.871Z,9.7288
2023-05-19T04:55:33.879Z,9.7411
2023-05-19T04:56:34.984Z,9.7120
2023-05-19T04:57:35.913Z,9.6822
2023-05-19T04:58:36.954Z,9.6910
2023-05-19T04:59:37.985Z,9.7329
2023-05-19T05:00:39.090Z,9.6551
2023-05-19T05:01:40.207Z,9.7331
2023-05-19T05:02:41.186Z,9.7859
2023-05-19T05:03:42.245Z,9.8299
2023-05-19T05:04:43.230Z,9.7754
2023-05-19T05:05:44.323Z,9.6822
2023-05-19T05:06:45.352Z,9.7029
2023-05-19T05:07:46.327Z,9.7475
2023-05-19T05:08:47.403Z,9.7958
2023-05-19T05:09:48.476Z,9.8444
2023-05-19T05:10:49.547Z,9.7832
2023-05-19T05:11:50.572Z,9.8527
2023-05-19T05:12:51.676Z,9.8944
2023-05-19T05:13:52.632Z,9.9874
2023-05-19T05:14:53.728Z,10.0484
2023-05-19T05:15:54.783Z,10.0244
2023-05-19T05:16:55.811Z,10.0655
2023-05-19T05:17:56.939Z,10.0803
2023-05-19T05:18:57.904Z,9.9800
2023-05-19T05:19:58.906Z,10.0092
2023-05-19T05:20:59.947Z,10.0246
2023-05-19T05:22:01.052Z,10.1530
2023-05-19T05:23:01.990Z,10.0285
2023-05-19T05:24:03.006Z,9.9209
2023-05-19T05:25:04.109Z,9.9669
2023-05-19T05:26:05.157Z,10.0012
2023-05-19T05:27:06.270Z,9.9895
2023-05-19T05:28:07.330Z,10.0273
2023-05-19T05:29:08.333Z,9.9958
2023-05-19T05:30:09.329Z,10.0077
2023-05-19T05:31:10.461Z,10.0616
2023-05-19T05:32:11.493Z,10.0217
2023-05-19T05:33:12.748Z,10.0277
2023-05-19T05:34:13.530Z,10.0036
2023-05-19T05:35:14.563Z,10.0384
2023-05-19T05:36:15.665Z,9.9712
2023-05-19T05:37:16.697Z,9.9648
2023-05-19T05:38:17.736Z,9.8837
2023-05-19T05:39:18.750Z,9.7995
2023-05-19T05:40:19.774Z,9.8134
2023-05-19T05:41:20.823Z,9.8038
2023-05-19T05:42:21.950Z,9.7518
2023-05-19T05:43:22.910Z,9.7830
2023-05-19T05:44:23.939Z,9.7912
2023-05-19T05:45:24.997Z,9.8015
2023-05-19T05:46:26.195Z,9.8527
2023-05-19T05:47:27.153Z,9.8623
2023-05-19T05:48:28.108Z,9.8553
2023-05-19T05:49:29.145Z,9.8818
2023-05-19T05:50:30.187Z,9.7797
2023-05-19T05:51:31.249Z,9.7988
2023-05-19T05:52:32.294Z,9.7822
2023-05-19T05:53:33.295Z,9.8375
2023-05-19T05:54:34.337Z,9.8003
2023-05-19T05:55:35.546Z,9.7122
2023-05-19T05:56:36.513Z,9.6707
2023-05-19T05:57:37.565Z,9.7331
2023-05-19T05:58:38.517Z,9.7000
2023-05-19T05:59:39.554Z,9.6914
2023-05-19T06:00:40.593Z,9.6772
2023-05-19T06:01:41.721Z,9.6372
2023-05-19T06:02:42.820Z,9.6705
2023-05-19T06:03:43.835Z,9.6873
2023-05-19T06:04:44.751Z,9.7290
2023-05-19T06:05:45.829Z,9.7861
2023-05-19T06:06:46.862Z,9.8331
2023-05-19T06:07:47.940Z,9.8056
2023-05-19T06:08:48.906Z,9.7440
2023-05-19T06:09:49.953Z,9.7896
2023-05-19T06:10:51.018Z,9.7306
2023-05-19T06:11:52.075Z,9.7161
2023-05-19T06:12:53.130Z,9.6963
2023-05-19T06:13:54.113Z,9.5591
2023-05-19T06:14:55.138Z,9.5922
2023-05-19T06:15:56.208Z,9.5213
2023-05-19T06:16:57.389Z,9.5351
2023-05-19T06:17:58.367Z,9.5684
2023-05-19T06:18:59.452Z,9.5534
2023-05-19T06:20:00.340Z,9.5587
2023-05-19T06:21:01.503Z,9.5439
2023-05-19T06:22:02.524Z,9.6327
2023-05-19T06:23:03.544Z,9.5423
2023-05-19T06:24:04.538Z,9.6425
2023-05-19T06:25:05.632Z,9.6251
2023-05-19T06:26:06.611Z,9.5655
2023-05-19T06:27:07.825Z,9.5873
2023-05-19T06:28:08.796Z,9.6456
2023-05-19T06:29:09.730Z,9.6105
2023-05-19T06:30:10.788Z,9.5398
2023-05-19T06:31:11.841Z,9.5589
2023-05-19T06:32:12.880Z,9.5513
2023-05-19T06:33:14.002Z,9.5608
2023-05-19T06:34:14.943Z,9.5135
2023-05-19T06:35:16.065Z,9.5984
2023-05-19T06:36:17.119Z,9.6557
2023-05-19T06:37:18.216Z,9.6160
2023-05-19T06:38:19.162Z,9.5261
2023-05-19T06:39:20.192Z,9.4876
2023-05-19T06:40:21.200Z,9.4895
2023-05-19T06:41:22.391Z,9.5493
2023-05-19T06:42:23.327Z,9.4891
2023-05-19T06:43:24.396Z,9.4583
2023-05-19T06:44:25.356Z,9.5673
2023-05-19T06:45:26.439Z,9.5700
2023-05-19T06:46:27.460Z,9.5676
2023-05-19T06:47:28.566Z,9.5801
2023-05-19T06:48:29.631Z,9.5676
2023-05-19T06:49:30.612Z,9.5318
2023-05-19T06:50:31.843Z,9.5367
2023-05-19T06:51:32.670Z,9.5460
2023-05-19T06:52:33.860Z,9.6199
2023-05-19T06:53:34.816Z,9.6000
2023-05-19T06:54:35.775Z,9.6068
2023-05-19T06:55:41.400Z,9.6164
2023-05-19T06:56:37.908Z,9.5782
2023-05-19T06:57:38.946Z,9.5678
2023-05-19T06:58:39.921Z,9.6298
2023-05-19T06:59:40.901Z,9.6041
2023-05-19T07:00:41.965Z,9.5881
2023-05-19T07:01:43.077Z,9.5372
2023-05-19T07:02:44.152Z,9.5988
2023-05-19T07:03:45.156Z,9.6631
2023-05-19T07:04:46.105Z,9.6793
2023-05-19T07:05:47.133Z,9.6090
2023-05-19T07:06:48.185Z,9.6234
2023-05-19T07:07:49.253Z,9.6528
2023-05-19T07:08:51.816Z,9.6000
2023-05-19T07:09:51.312Z,9.6549
2023-05-19T07:10:52.380Z,9.6444
2023-05-19T07:11:53.373Z,9.6600
2023-05-19T07:12:54.492Z,9.7265
2023-05-19T07:13:55.616Z,9.7021
2023-05-19T07:14:56.590Z,9.7206
2023-05-19T07:15:57.601Z,9.7070
2023-05-19T07:16:58.607Z,9.7438
2023-05-19T07:17:59.724Z,9.6302
2023-05-19T07:19:00.800Z,9.5386
2023-05-19T07:20:01.731Z,9.6690
2023-05-19T07:21:02.788Z,9.5957
2023-05-19T07:22:03.822Z,9.7522
2023-05-19T07:23:04.901Z,9.8327
2023-05-19T07:24:05.932Z,9.8699
2023-05-19T07:25:06.993Z,9.9055
2023-05-19T07:26:07.965Z,9.8841
2023-05-19T07:27:09.071Z,9.8956
2023-05-19T07:28:10.135Z,9.7656
2023-05-19T07:29:11.204Z,9.8389
2023-05-19T07:30:12.223Z,9.8958
2023-05-19T07:31:13.208Z,9.8477
2023-05-19T07:32:14.344Z,9.8894
2023-05-19T07:33:15.395Z,9.9895
2023-05-19T07:34:16.349Z,9.9712
2023-05-19T07:35:17.415Z,9.9225
2023-05-19T07:36:18.405Z,9.8186
2023-05-19T07:37:19.499Z,9.9441
2023-05-19T07:38:20.505Z,9.9819
2023-05-19T07:39:21.609Z,9.9780
2023-05-19T07:40:22.594Z,9.8763
2023-05-19T07:41:23.640Z,10.0416
2023-05-19T07:42:24.699Z,10.0242
2023-05-19T07:43:25.696Z,10.0373
2023-05-19T07:44:26.750Z,10.0558
2023-05-19T07:45:27.848Z,10.0156
2023-05-19T07:46:28.993Z,10.0394
2023-05-19T07:47:30.023Z,10.0034
2023-05-19T07:48:30.890Z,9.9476
2023-05-19T07:49:32.011Z,9.9917
2023-05-19T07:50:33.140Z,10.0577
2023-05-19T07:51:34.019Z,10.1593
2023-05-19T07:52:35.083Z,10.0967
2023-05-19T07:53:36.135Z,10.2037
2023-05-19T07:54:37.164Z,10.3132
2023-05-19T07:55:38.208Z,10.4529
2023-05-19T07:56:39.214Z,10.3304
2023-05-19T07:57:40.540Z,10.2793
2023-05-19T07:58:41.332Z,10.3647
2023-05-19T07:59:42.386Z,10.2569
2023-05-19T08:00:43.435Z,10.4391
2023-05-19T08:01:44.418Z,10.4960
2023-05-19T08:02:45.493Z,10.4787
2023-05-19T08:03:46.545Z,10.3378
2023-05-19T08:04:47.680Z,10.5168
2023-05-19T08:05:48.657Z,10.4683
2023-05-19T08:06:49.591Z,10.4993
2023-05-19T08:07:50.691Z,10.2811
2023-05-19T08:08:51.747Z,10.3935
2023-05-19T08:09:52.817Z,10.3263
2023-05-19T08:10:53.847Z,10.3438
2023-05-19T08:11:54.873Z,10.3896
2023-05-19T08:12:56.138Z,10.1131
2023-05-19T08:13:56.926Z,10.0416
2023-05-19T08:14:59.734Z,9.9494
2023-05-19T08:15:59.090Z,10.0351
2023-05-19T08:17:00.039Z,10.1291
2023-05-19T08:18:01.151Z,10.1172
2023-05-19T08:19:02.173Z,10.1799
2023-05-19T08:20:03.219Z,10.2483
2023-05-19T08:21:04.247Z,10.2335
2023-05-19T08:22:05.253Z,10.2994
2023-05-19T08:23:06.271Z,10.3658
2023-05-19T08:24:07.352Z,10.3666
2023-05-19T08:25:08.438Z,10.3555
2023-05-19T08:26:09.505Z,10.2879
2023-05-19T08:27:10.482Z,10.3514
2023-05-19T08:28:11.620Z,10.3066
2023-05-19T08:29:12.522Z,10.3578
2023-05-19T08:30:13.645Z,10.2910
2023-05-19T08:31:14.704Z,10.2998
2023-05-19T08:32:15.698Z,10.3157
2023-05-19T08:33:16.701Z,10.1832
2023-05-19T08:34:17.746Z,10.1517
2023-05-19T08:35:18.865Z,10.2481
2023-05-19T08:36:20.055Z,10.2530
2023-05-19T08:37:20.907Z,10.2491
2023-05-19T08:38:21.954Z,10.3083
2023-05-19T08:39:22.945Z,10.2530
2023-05-19T08:40:24.067Z,10.3136
2023-05-19T08:41:25.128Z,10.5233
2023-05-19T08:42:26.152Z,10.5839
2023-05-19T08:43:27.148Z,10.5114
2023-05-19T08:44:28.161Z,10.5548
2023-05-19T08:45:29.465Z,10.5081
2023-05-19T08:46:30.309Z,10.5578
2023-05-19T08:47:31.337Z,10.4724
2023-05-19T08:48:32.323Z,10.3493
2023-05-19T08:49:33.346Z,10.3031
2023-05-19T08:50:34.741Z,10.3949
2023-05-19T08:51:35.497Z,10.5714
2023-05-19T08:52:36.557Z,10.6131
2023-05-19T08:53:37.519Z,10.7372
2023-05-19T08:54:38.540Z,10.6897
2023-05-19T08:55:39.625Z,10.7626
2023-05-19T08:56:40.660Z,10.8351
2023-05-19T08:57:41.699Z,10.9496
2023-05-19T08:58:42.786Z,10.9237
2023-05-19T08:59:43.781Z,10.9787
2023-05-19T09:00:44.848Z,11.0190
2023-05-19T09:01:46.027Z,10.9995
2023-05-19T09:02:55.467Z,11.1153
2023-05-19T09:03:47.974Z,10.9691
2023-05-19T09:04:49.015Z,11.1291
2023-05-19T09:05:50.073Z,11.1802
2023-05-19T09:06:51.054Z,10.8970
2023-05-19T09:07:52.165Z,10.7955
2023-05-19T09:08:53.381Z,11.1120
2023-05-19T09:09:54.137Z,11.1506
2023-05-19T09:10:55.264Z,11.1626
2023-05-19T09:11:56.306Z,11.0414
2023-05-19T09:12:57.302Z,11.1582
2023-05-19T09:13:58.316Z,11.0093
2023-05-19T09:14:59.374Z,10.9841
2023-05-19T09:16:00.390Z,11.1176
2023-05-19T09:17:01.575Z,11.0578
2023-05-19T09:18:02.558Z,10.8162
2023-05-19T09:19:03.620Z,10.7789
2023-05-19T09:20:04.574Z,11.0101
2023-05-19T09:21:05.603Z,10.8171
2023-05-19T09:22:06.718Z,10.7661
2023-05-19T09:23:07.703Z,10.7316
2023-05-19T09:24:08.726Z,10.7536
2023-05-19T09:25:09.740Z,10.7908
2023-05-19T09:26:10.752Z,10.7187
2023-05-19T09:27:11.859Z,10.8707
2023-05-19T09:28:12.943Z,10.9724
2023-05-19T09:29:13.992Z,10.9023
2023-05-19T09:30:15.007Z,10.8522
2023-05-19T09:31:16.042Z,10.7181
2023-05-19T09:32:17.096Z,10.6182
2023-05-19T09:33:18.172Z,10.6178
2023-05-19T09:34:19.298Z,10.6464
2023-05-19T09:35:20.229Z,10.6151
2023-05-19T09:36:21.182Z,10.8505
2023-05-19T09:37:22.323Z,10.8312
2023-05-19T09:38:23.300Z,10.7413
2023-05-19T09:39:24.401Z,10.7493
2023-05-19T09:40:25.479Z,10.8540
2023-05-19T09:41:26.422Z,11.0286
2023-05-19T09:42:27.458Z,11.0882
2023-05-19T09:43:28.639Z,11.0937
2023-05-19T09:44:29.718Z,11.1198
2023-05-19T09:45:30.665Z,11.3706
2023-05-19T09:46:31.656Z,11.4657
2023-05-19T09:47:32.666Z,11.1447
2023-05-19T09:48:33.706Z,11.0872
2023-05-19T09:49:34.749Z,11.1831
2023-05-19T09:50:35.836Z,11.2994
2023-05-19T09:51:36.795Z,11.1574
2023-05-19T09:52:37.833Z,11.1326
2023-05-19T09:53:38.978Z,11.2063
2023-05-19T09:54:39.939Z,11.3353
2023-05-19T09:55:40.944Z,11.5535
2023-05-19T09:56:42.012Z,11.4760
2023-05-19T09:57:43.022Z,11.5321
2023-05-19T09:58:44.088Z,11.4308
2023-05-19T09:59:45.160Z,11.3795
2023-05-19T10:00:46.193Z,11.4590
2023-05-19T10:01:47.221Z,11.3994
2023-05-19T10:02:48.287Z,11.5134
2023-05-19T10:03:49.263Z,11.4888
2023-05-19T10:04:50.365Z,11.5832
2023-05-19T10:05:51.397Z,11.5972
2023-05-19T10:06:52.420Z,11.7221
2023-05-19T10:07:53.418Z,11.8675
2023-05-19T10:08:54.462Z,11.6757
2023-05-19T10:09:56.670Z,11.4770
2023-05-19T10:10:56.665Z,11.5249
2023-05-19T10:11:57.614Z,11.5292
2023-05-19T10:12:58.647Z,11.4855
2023-05-19T10:13:59.701Z,11.6358
2023-05-19T10:15:00.734Z,11.8080
2023-05-19T10:16:02.139Z,11.9027
2023-05-19T10:17:03.021Z,11.6379
2023-05-19T10:18:03.876Z,11.7338
2023-05-19T10:19:04.966Z,11.7447
2023-05-19T10:20:05.931Z,11.8423
2023-05-19T10:21:07.012Z,11.8314
2023-05-19T10:22:08.032Z,11.8749
2023-05-19T10:23:09.195Z,11.8096
2023-05-19T10:24:11.472Z,11.7007
2023-05-19T10:25:11.152Z,11.6693
2023-05-19T10:26:12.207Z,11.9191
2023-05-19T10:27:13.272Z,11.9507
2023-05-19T10:28:14.256Z,11.8207
2023-05-19T10:29:15.301Z,11.8651
2023-05-19T10:30:16.735Z,11.9698
2023-05-19T10:31:17.418Z,11.8944
2023-05-19T10:32:18.494Z,11.9059
2023-05-19T10:33:19.584Z,11.7408
2023-05-19T10:34:20.496Z,11.7796
2023-05-19T10:35:21.572Z,11.9593
2023-05-19T10:36:22.615Z,11.8186
2023-05-19T10:37:23.659Z,12.0631
2023-05-19T10:38:24.666Z,12.0660
2023-05-19T10:39:25.741Z,12.1584
2023-05-19T10:40:26.783Z,12.2303
2023-05-19T10:41:27.830Z,12.0865
2023-05-19T10:42:28.880Z,12.1068
2023-05-19T10:43:29.875Z,12.2494
2023-05-19T10:44:30.944Z,12.1103
2023-05-19T10:45:32.189Z,12.2907
2023-05-19T10:46:33.062Z,11.9066
2023-05-19T10:47:34.135Z,11.9033
2023-05-19T10:48:35.167Z,11.9464
2023-05-19T10:49:36.113Z,12.0598
2023-05-19T10:50:37.190Z,11.9883
2023-05-19T10:51:38.248Z,11.9123
2023-05-19T10:52:39.295Z,12.0914
2023-05-19T10:53:40.351Z,11.8112
2023-05-19T10:54:41.372Z,11.9787
2023-05-19T10:55:42.380Z,12.2143
2023-05-19T10:56:43.431Z,12.3166
2023-05-19T10:57:44.463Z,12.5084
2023-05-19T10:58:45.570Z,12.3954
2023-05-19T10:59:46.545Z,12.3437
2023-05-19T11:00:47.608Z,12.3944
2023-05-19T11:01:48.633Z,12.3817
2023-05-19T11:02:49.848Z,12.3675
2023-05-19T11:03:50.839Z,12.4983
2023-05-19T11:04:52.149Z,12.3576
2023-05-19T11:05:52.799Z,12.3024
2023-05-19T11:06:53.910Z,12.4211
2023-05-19T11:07:54.903Z,12.3866
2023-05-19T11:08:55.988Z,12.3909
2023-05-19T11:09:56.984Z,12.2938
2023-05-19T11:10:58.029Z,12.2896
2023-05-19T11:11:59.042Z,12.4624
2023-05-19T11:13:00.104Z,12.5189
2023-05-19T11:14:01.206Z,12.2212
2023-05-19T11:15:02.204Z,12.2744
2023-05-19T11:16:03.193Z,12.2054
2023-05-19T11:17:04.323Z,12.1970
2023-05-19T11:18:05.383Z,12.3418
2023-05-19T11:19:06.418Z,12.7118
2023-05-19T11:20:07.428Z,12.8383
2023-05-19T11:21:08.484Z,12.8989
2023-05-19T11:22:09.479Z,12.9833
2023-05-19T11:23:10.684Z,12.7420
2023-05-19T11:24:11.559Z,12.7820
2023-05-19T11:25:12.622Z,12.9757
2023-05-19T11:26:13.633Z,13.0289
2023-05-19T11:27:14.673Z,13.0275
2023-05-19T11:28:15.697Z,12.6280
2023-05-19T11:29:16.793Z,12.6411
2023-05-19T11:30:17.814Z,12.6296
2023-05-19T11:31:18.850Z,12.7471
2023-05-19T11:32:19.932Z,12.5528
2023-05-19T11:33:21.022Z,12.6327
2023-05-19T11:34:21.993Z,12.6259
2023-05-19T11:35:23.074Z,12.4614
2023-05-19T11:36:24.030Z,12.5828
2023-05-19T11:37:25.101Z,12.4840
2023-05-19T11:38:26.112Z,12.5980
2023-05-19T11:39:27.209Z,12.6452
2023-05-19T11:40:28.252Z,12.7927
2023-05-19T11:41:29.330Z,12.8447
2023-05-19T11:42:30.303Z,12.9441
2023-05-19T11:43:31.355Z,13.0061
2023-05-19T11:44:32.401Z,13.1322
2023-05-19T11:45:33.594Z,13.4506
2023-05-19T11:46:34.571Z,13.7277
2023-05-19T11:47:46.490Z,13.6698
2023-05-19T11:48:36.550Z,13.5480
2023-05-19T11:49:37.581Z,13.7493
2023-05-19T11:50:38.692Z,13.5981
2023-05-19T11:51:39.682Z,13.3810
2023-05-19T11:52:40.704Z,13.6866
2023-05-19T11:53:41.732Z,13.6912
2023-05-19T11:54:42.773Z,13.6478
2023-05-19T11:55:44.090Z,13.8506
2023-05-19T11:56:44.903Z,14.1648
2023-05-19T11:57:56.052Z,14.1922
2023-05-19T11:58:47.016Z,14.0823
2023-05-19T11:59:47.957Z,13.7930
2023-05-19T12:00:49.010Z,13.6186
2023-05-19T12:01:50.091Z,13.7363
2023-05-19T12:02:51.191Z,13.8189
2023-05-19T12:03:52.397Z,14.0798
2023-05-19T12:04:53.241Z,14.2610
2023-05-19T12:05:54.295Z,14.4319
2023-05-19T12:06:55.237Z,14.3530
2023-05-19T12:07:56.326Z,14.3637
2023-05-19T12:08:57.369Z,14.1326
2023-05-19T12:09:58.365Z,14.1846
2023-05-19T12:10:59.405Z,14.0258
2023-05-19T12:12:00.480Z,13.8902
2023-05-19T12:13:01.504Z,14.2550
2023-05-19T12:14:02.559Z,14.4006
2023-05-19T12:15:03.534Z,14.1874
2023-05-19T12:16:04.652Z,14.1285
2023-05-19T12:17:05.624Z,14.4709
2023-05-19T12:18:06.898Z,14.6576
2023-05-19T12:19:07.778Z,14.1593
2023-05-19T12:20:08.760Z,14.0186
2023-05-19T12:21:09.776Z,13.8430
2023-05-19T12:22:10.842Z,13.9559
2023-05-19T12:23:11.921Z,13.9902
2023-05-19T12:24:13.011Z,14.1061
2023-05-19T12:25:13.963Z,13.8863
2023-05-19T12:26:15.030Z,14.1379